OICK  Khoram Abad  Airport

Iran

Add Bookmark
ICAO OICK
IATA KHD
Type Airport
Status Operational
Latitude
33° 26' 7" N
33.435398
Longitude
48° 16' 58" E
48.282902
Local (DST + 5) UTC (GMT + 4)
Aug 2, 2015 12:42 Aug 1, 2015 20:12
Sunrise-Sunset Local UTC
Begin Civil Twilight 06:01 01:31
Sunrise 06:28 01:58
Sunset 08:17 15:47
End Civil Twilight 08:44 16:14
VFR
VFR
MVFR
MVFR
IFR
IFR
LIFR
LIFR
Unknown
Unavailable

Current Weather

METAR Observed VFR
OICK 011550Z 15004KT 9999 FEW040 34/M02 Q1010 Sat, Aug 1, 2015 @ 15:50 UTC
(4 Hours, 22 Minutes ago)
Visual Flight Rules
Wind Visibility Clouds Conditions
150° at 4 knots (7 kph) 10 km or more
  • Few at 4,000 ft AGL
  • No significant weather
Temperatures Readings Precipitation
Current Temp
34°C
93°F
Dewpoint
-2°C
28°F
Humidity 10%
Altimeter 29.82" Hg
Sea Level Pressure 1,010 mb
Field Elevation
1,155 m
3,789 ft
None Recorded

Additional weather within a 92.6km radius of OICK

Map ICAO Location
OICJ 67.4km NE (040°)
VFR
VFR
MVFR
MVFR
IFR
IFR
LIFR
LIFR
Unknown
Unavailable
-
-

CheckWX.com is intended as a tool to help pilots better visualize weather data. It is not intended as a substitute for an official weather briefing obtained from a Flight Service Station. CheckWX.com does not meet the FAA requirements for an official pre-flight weather briefing. Therefore, it's important that pilots still call and obtain an official FSS pre-flight weather briefing.

© 2007-2015 CheckWX.com
20:12:59 UTC